Time;durP1;ratioP1;P1;durP2;ratioP2;P2;SDS_P1;SDS_P2;PMS_P1;PMS_P2;Temp;Humidity;BMP_temperature;BMP_pressure;BME280_temperature;BME280_humidity;BME280_pressure;Samples;Min_cycle;Max_cycle;Signal;HPM_P1;HPM_P2
2023/08/20 00:00:43;;;;;;;4.55;1.10;;;23.70;96.50;;;;;;5093595;28;20092;-81
2023/08/20 00:03:12;;;;;;;7.65;1.65;;;23.80;96.50;;;;;;5094571;28;20055;-81
2023/08/20 00:05:39;;;;;;;4.30;1.33;;;23.80;96.70;;;;;;5093296;28;20043;-81
2023/08/20 00:08:05;;;;;;;4.88;1.40;;;23.80;96.50;;;;;;5094991;28;20020;-81
2023/08/20 00:10:31;;;;;;;3.00;1.00;;;23.70;96.50;;;;;;5094649;28;20490;-81
2023/08/20 00:12:57;;;;;;;1.98;0.90;;;23.80;96.50;;;;;;5094322;28;20575;-81
2023/08/20 00:15:26;;;;;;;3.88;0.90;;;23.80;96.50;;;;;;5094451;28;20032;-81
2023/08/20 00:17:52;;;;;;;3.70;1.20;;;23.80;96.40;;;;;;5094078;28;20492;-81
2023/08/20 00:20:19;;;;;;;3.67;1.02;;;23.90;96.40;;;;;;5094044;28;20032;-81
2023/08/20 00:22:45;;;;;;;3.47;1.30;;;23.80;96.40;;;;;;5094320;28;20032;-81
2023/08/20 00:25:12;;;;;;;3.00;1.15;;;23.80;96.20;;;;;;5094388;28;20024;-81
2023/08/20 00:27:41;;;;;;;3.88;1.30;;;23.70;96.30;;;;;;5094000;28;20032;-81
2023/08/20 00:30:08;;;;;;;4.30;1.75;;;23.70;96.40;;;;;;5094688;28;20051;-81
2023/08/20 00:32:35;;;;;;;4.18;1.70;;;23.70;96.40;;;;;;5094196;28;20028;-81
2023/08/20 00:35:02;;;;;;;2.83;1.23;;;23.60;96.50;;;;;;5094523;28;20035;-81
2023/08/20 00:37:28;;;;;;;5.13;1.80;;;23.60;96.50;;;;;;5093544;28;20039;-81
2023/08/20 00:39:54;;;;;;;5.43;1.90;;;23.60;96.30;;;;;;5094093;28;20027;-81
2023/08/20 00:42:20;;;;;;;4.72;1.88;;;23.60;96.40;;;;;;5092847;28;20024;-82
2023/08/20 00:44:46;;;;;;;2.47;1.33;;;23.60;96.50;;;;;;5094136;28;20377;-81
2023/08/20 00:47:12;;;;;;;4.18;1.50;;;23.60;96.50;;;;;;5093993;28;20058;-81
2023/08/20 00:49:40;;;;;;;5.35;1.30;;;23.60;96.60;;;;;;5092754;28;20430;-81
2023/08/20 00:52:08;;;;;;;3.53;1.13;;;23.60;96.60;;;;;;5093999;28;20024;-80
2023/08/20 00:54:34;;;;;;;3.35;1.50;;;23.60;96.60;;;;;;5094064;28;20491;-80
2023/08/20 00:57:02;;;;;;;5.38;1.75;;;23.60;96.70;;;;;;5094008;28;20024;-80
2023/08/20 00:59:29;;;;;;;4.60;1.17;;;23.60;96.70;;;;;;5093882;28;20032;-80
2023/08/20 01:01:55;;;;;;;3.83;1.10;;;23.60;96.70;;;;;;5093365;28;20408;-81
2023/08/20 01:04:20;;;;;;;2.38;1.10;;;23.60;96.70;;;;;;5093509;28;20028;-81
2023/08/20 01:07:05;;;;;;;3.13;1.17;;;23.60;96.60;;;;;;5093142;28;20064;-80
2023/08/20 01:09:57;;;;;;;4.20;1.20;;;23.60;96.60;;;;;;5093725;28;20074;-80
2023/08/20 01:12:24;;;;;;;;;;;23.60;96.60;;;;;;5094361;28;20028;-81
2023/08/20 01:14:49;;;;;;;3.63;1.20;;;23.60;96.60;;;;;;5093831;28;19907;-81
2023/08/20 01:17:15;;;;;;;4.97;1.50;;;23.60;96.60;;;;;;5077680;28;20082;-80
2023/08/20 01:19:41;;;;;;;3.05;1.23;;;23.60;96.60;;;;;;5097958;28;20374;-80
2023/08/20 01:22:22;;;;;;;2.15;1.42;;;23.60;96.70;;;;;;5097858;28;20038;-80
2023/08/20 01:24:54;;;;;;;4.95;1.42;;;23.60;96.60;;;;;;5097915;28;20024;-80
2023/08/20 01:27:57;;;;;;;3.42;1.40;;;23.60;96.80;;;;;;5097555;28;20115;-80
2023/08/20 01:30:24;;;;;;;4.35;1.40;;;23.60;96.70;;;;;;5097545;28;20381;-81
2023/08/20 01:32:53;;;;;;;4.18;1.27;;;23.60;96.60;;;;;;5097705;28;20024;-80
2023/08/20 01:35:18;;;;;;;6.55;1.50;;;23.60;96.60;;;;;;5096952;28;20135;-81
2023/08/20 01:37:44;;;;;;;2.28;1.10;;;23.60;96.60;;;;;;5097255;28;20468;-80
2023/08/20 01:40:10;;;;;;;3.83;1.20;;;23.60;96.60;;;;;;5097443;28;20050;-81
2023/08/20 01:42:40;;;;;;;6.18;1.70;;;23.60;96.70;;;;;;5097189;28;20495;-81
2023/08/20 01:45:07;;;;;;;4.25;1.40;;;23.60;96.70;;;;;;5097500;28;20020;-81
2023/08/20 01:47:33;;;;;;;4.15;2.00;;;23.60;96.70;;;;;;5097421;28;20024;-81
2023/08/20 01:49:59;;;;;;;3.47;1.27;;;23.60;96.70;;;;;;5097322;28;20127;-81
2023/08/20 01:52:25;;;;;;;3.63;1.40;;;23.60;96.70;;;;;;5097633;28;20431;-81
2023/08/20 01:54:52;;;;;;;4.43;1.70;;;23.60;96.70;;;;;;5097216;28;20081;-81
2023/08/20 01:57:17;;;;;;;5.10;1.20;;;23.50;96.70;;;;;;5097573;28;20020;-80
2023/08/20 01:59:43;;;;;;;2.80;1.02;;;23.60;96.70;;;;;;5097002;28;20066;-80
2023/08/20 02:02:08;;;;;;;2.50;1.08;;;23.60;96.70;;;;;;5096918;28;20062;-80
2023/08/20 02:04:34;;;;;;;5.28;1.50;;;23.50;96.70;;;;;;5097083;28;20077;-81
2023/08/20 02:07:00;;;;;;;5.82;1.70;;;23.60;96.70;;;;;;5096559;28;20060;-80
2023/08/20 02:09:26;;;;;;;2.95;1.25;;;23.60;96.70;;;;;;5096946;28;20043;-81
2023/08/20 02:11:52;;;;;;;3.53;1.08;;;23.50;96.70;;;;;;5096614;28;20032;-81
2023/08/20 02:14:17;;;;;;;5.88;1.40;;;23.50;96.80;;;;;;5096882;28;20095;-80
2023/08/20 02:16:44;;;;;;;4.00;1.35;;;23.50;96.80;;;;;;5096701;28;20150;-80
2023/08/20 02:19:10;;;;;;;3.45;1.38;;;23.50;96.80;;;;;;5095467;28;20123;-80
2023/08/20 02:21:36;;;;;;;2.45;1.23;;;23.50;96.80;;;;;;5096568;28;20039;-80
2023/08/20 02:24:02;;;;;;;2.58;1.15;;;23.50;96.80;;;;;;5096390;28;20115;-80
2023/08/20 02:26:27;;;;;;;3.30;1.30;;;23.40;96.80;;;;;;5096619;28;20149;-81
2023/08/20 02:28:53;;;;;;;3.97;1.35;;;23.40;96.80;;;;;;5096032;28;20032;-80
2023/08/20 02:31:18;;;;;;;2.90;1.23;;;23.40;96.80;;;;;;5096294;28;20040;-80
2023/08/20 02:33:44;;;;;;;2.80;1.25;;;23.40;96.80;;;;;;5096212;28;20035;-80
2023/08/20 02:36:10;;;;;;;4.22;1.15;;;23.40;96.80;;;;;;5096085;28;20530;-80
2023/08/20 02:38:35;;;;;;;4.78;1.23;;;23.40;96.90;;;;;;5095251;28;20036;-80
2023/08/20 02:41:04;;;;;;;5.93;1.30;;;23.40;96.80;;;;;;5095273;28;20070;-80
2023/08/20 02:43:30;;;;;;;3.13;1.27;;;23.30;96.90;;;;;;5096330;28;20032;-79
2023/08/20 02:45:56;;;;;;;3.60;1.42;;;23.30;96.90;;;;;;5095975;28;20031;-80
2023/08/20 02:48:26;;;;;;;4.72;1.38;;;23.30;97.00;;;;;;5096227;28;20059;-80
2023/08/20 02:50:55;;;;;;;4.82;1.20;;;23.30;97.00;;;;;;5096733;28;20036;-80
2023/08/20 02:53:22;;;;;;;3.70;1.73;;;23.30;97.00;;;;;;5096391;28;20024;-80
2023/08/20 02:55:48;;;;;;;3.25;1.35;;;23.30;97.00;;;;;;5095240;28;20449;-80
2023/08/20 02:58:14;;;;;;;4.00;1.25;;;23.30;97.00;;;;;;5095713;28;20077;-80
2023/08/20 03:00:45;;;;;;;3.08;1.60;;;23.20;97.00;;;;;;5095912;28;20464;-80
2023/08/20 03:03:11;;;;;;;6.07;1.98;;;23.20;97.00;;;;;;5095574;28;20125;-81
2023/08/20 03:05:36;;;;;;;5.15;2.17;;;23.20;97.10;;;;;;5094371;28;20035;-79
2023/08/20 03:08:05;;;;;;;4.47;1.38;;;23.20;97.10;;;;;;5095813;28;20024;-81
2023/08/20 03:10:31;;;;;;;3.35;1.40;;;23.20;97.10;;;;;;5095801;28;20063;-80
2023/08/20 03:13:01;;;;;;;5.18;1.67;;;23.20;97.10;;;;;;5095770;28;20028;-80
2023/08/20 03:15:30;;;;;;;3.70;1.65;;;23.20;97.10;;;;;;5095723;28;20455;-81
2023/08/20 03:17:56;;;;;;;2.75;1.40;;;23.20;97.20;;;;;;5095549;28;20172;-81
2023/08/20 03:20:22;;;;;;;2.70;1.35;;;23.20;97.20;;;;;;5094243;28;20551;-81
2023/08/20 03:22:48;;;;;;;3.50;1.50;;;23.20;97.20;;;;;;5094386;28;20105;-81
2023/08/20 03:25:13;;;;;;;3.22;1.25;;;23.20;97.20;;;;;;5095517;28;20020;-80
2023/08/20 03:27:40;;;;;;;4.85;1.55;;;23.20;97.20;;;;;;5094199;28;20028;-80
2023/08/20 03:30:06;;;;;;;4.35;1.58;;;23.20;97.30;;;;;;5095204;28;20028;-79
2023/08/20 03:32:32;;;;;;;4.88;1.50;;;23.20;97.20;;;;;;5095348;28;20055;-80
2023/08/20 03:34:59;;;;;;;4.22;1.98;;;23.20;97.20;;;;;;5095283;28;20032;-80
2023/08/20 03:37:25;;;;;;;4.47;1.75;;;23.20;97.30;;;;;;5094862;28;20035;-80
2023/08/20 03:39:51;;;;;;;3.53;1.35;;;23.20;97.30;;;;;;5094437;28;20067;-80
2023/08/20 03:42:17;;;;;;;3.13;1.48;;;23.20;97.40;;;;;;5094764;28;20064;-80
2023/08/20 03:44:43;;;;;;;5.68;1.92;;;23.20;97.40;;;;;;5094845;28;20039;-80
2023/08/20 03:47:08;;;;;;;6.43;2.30;;;23.20;97.40;;;;;;5095101;28;20024;-80
2023/08/20 03:49:34;;;;;;;2.65;1.38;;;23.20;97.40;;;;;;5095044;28;20032;-81
2023/08/20 03:52:01;;;;;;;2.85;1.60;;;23.20;97.40;;;;;;5077144;28;20039;-80
2023/08/20 03:54:28;;;;;;;4.45;1.85;;;23.20;97.30;;;;;;5094899;28;20068;-80
2023/08/20 03:56:54;;;;;;;2.97;1.70;;;23.20;97.40;;;;;;5095356;28;20033;-80
2023/08/20 03:59:20;;;;;;;2.95;1.70;;;23.20;97.40;;;;;;5093735;28;20384;-80
2023/08/20 04:01:45;;;;;;;3.08;1.80;;;23.10;97.40;;;;;;5094803;28;20068;-80
2023/08/20 04:04:11;;;;;;;3.90;1.30;;;23.10;97.40;;;;;;5093534;28;20035;-80
2023/08/20 04:06:37;;;;;;;3.83;1.50;;;23.10;97.40;;;;;;5094198;28;20040;-80
2023/08/20 04:09:03;;;;;;;2.47;1.33;;;23.20;97.40;;;;;;5093920;28;20032;-80
2023/08/20 04:11:28;;;;;;;2.97;1.48;;;23.10;97.40;;;;;;5093879;28;20032;-81
2023/08/20 04:13:54;;;;;;;3.38;1.27;;;23.10;97.40;;;;;;5094601;28;20127;-80
2023/08/20 04:16:20;;;;;;;4.45;1.75;;;23.10;97.40;;;;;;5094751;28;20437;-80
2023/08/20 04:18:45;;;;;;;3.53;1.95;;;23.20;97.40;;;;;;5093041;28;20477;-80
2023/08/20 04:21:11;;;;;;;4.03;2.03;;;23.20;97.40;;;;;;5076229;28;20040;-81
2023/08/20 04:23:37;;;;;;;2.80;1.75;;;23.10;97.40;;;;;;5094724;28;20456;-81
2023/08/20 04:26:02;;;;;;;2.53;1.27;;;23.10;97.30;;;;;;5094390;28;20028;-81
2023/08/20 04:28:28;;;;;;;3.30;1.20;;;23.00;97.40;;;;;;5093081;28;20423;-81
2023/08/20 04:30:54;;;;;;;3.30;1.52;;;23.00;97.40;;;;;;5093057;28;20393;-81
2023/08/20 04:33:20;;;;;;;4.72;1.67;;;23.00;97.40;;;;;;5093951;28;20062;-81
2023/08/20 04:35:46;;;;;;;1.98;0.95;;;23.00;97.40;;;;;;5093523;28;20073;-81
2023/08/20 04:38:12;;;;;;;4.47;2.00;;;23.00;97.50;;;;;;5094215;28;20038;-81
2023/08/20 04:40:38;;;;;;;2.70;1.35;;;23.10;97.50;;;;;;5094119;28;20036;-81
2023/08/20 04:43:03;;;;;;;4.15;2.22;;;23.00;97.40;;;;;;5094154;28;20058;-80
2023/08/20 04:45:29;;;;;;;4.25;2.00;;;23.00;97.40;;;;;;5094153;28;20288;-80
2023/08/20 04:47:55;;;;;;;4.13;1.77;;;23.00;97.40;;;;;;5094390;28;20024;-81
2023/08/20 04:50:20;;;;;;;4.72;1.80;;;23.00;97.50;;;;;;5094296;28;20035;-80
2023/08/20 04:52:46;;;;;;;4.38;1.90;;;22.90;97.40;;;;;;5092478;28;20039;-80
2023/08/20 04:55:12;;;;;;;3.10;1.75;;;22.90;97.50;;;;;;5094227;28;20024;-81
2023/08/20 04:57:37;;;;;;;4.97;2.28;;;22.90;97.50;;;;;;5094126;28;20063;-80
2023/08/20 05:00:04;;;;;;;4.50;2.22;;;22.90;97.50;;;;;;5093476;28;20032;-80
2023/08/20 05:02:31;;;;;;;4.22;2.05;;;22.90;97.50;;;;;;5093525;28;20129;-80
2023/08/20 05:04:56;;;;;;;4.88;2.58;;;22.80;97.30;;;;;;5094139;28;20468;-81
2023/08/20 05:07:22;;;;;;;4.97;1.80;;;22.80;97.50;;;;;;5093211;28;20051;-81
2023/08/20 05:09:49;;;;;;;3.95;2.17;;;22.80;97.50;;;;;;5092292;28;20464;-80
2023/08/20 05:12:14;;;;;;;13.18;2.70;;;22.70;97.60;;;;;;5093623;28;20434;-81
2023/08/20 05:14:40;;;;;;;5.35;2.30;;;22.70;97.60;;;;;;5093746;28;20028;-80
2023/08/20 05:17:06;;;;;;;4.95;2.42;;;22.80;97.70;;;;;;5093658;28;20024;-81
2023/08/20 05:19:31;;;;;;;4.68;2.53;;;22.80;97.70;;;;;;5094196;28;20040;-80
2023/08/20 05:21:58;;;;;;;4.90;2.42;;;22.70;97.60;;;;;;5093839;28;20036;-81
2023/08/20 05:24:25;;;;;;;3.47;2.10;;;22.80;97.70;;;;;;5093575;28;20039;-81
2023/08/20 05:27:06;;;;;;;4.72;2.03;;;22.70;97.70;;;;;;5093542;28;20028;-80
2023/08/20 05:29:32;;;;;;;4.35;1.90;;;22.80;97.70;;;;;;5093619;28;20098;-81
2023/08/20 05:31:57;;;;;;;4.43;1.77;;;22.80;97.70;;;;;;5092777;28;20046;-81
2023/08/20 05:34:23;;;;;;;3.22;1.30;;;22.80;97.70;;;;;;5093555;28;20107;-81
2023/08/20 05:36:48;;;;;;;3.90;1.88;;;22.80;97.60;;;;;;5091909;28;20035;-81
2023/08/20 05:39:14;;;;;;;4.03;1.75;;;22.90;97.60;;;;;;5093216;28;20032;-81
2023/08/20 05:41:40;;;;;;;5.97;2.00;;;22.90;97.60;;;;;;5093142;28;20036;-81
2023/08/20 05:44:05;;;;;;;4.93;1.67;;;22.90;97.60;;;;;;5093482;28;20028;-81
2023/08/20 05:46:31;;;;;;;3.33;1.45;;;23.00;97.50;;;;;;5093499;28;20033;-81
2023/08/20 05:48:56;;;;;;;4.20;1.42;;;23.00;97.50;;;;;;5093347;28;20393;-81
2023/08/20 05:51:22;;;;;;;4.50;1.42;;;23.00;97.40;;;;;;5093945;28;20384;-81
2023/08/20 05:53:48;;;;;;;6.38;2.30;;;23.00;97.30;;;;;;5092290;28;20491;-81
2023/08/20 05:56:13;;;;;;;6.95;2.38;;;23.10;97.20;;;;;;5091956;28;20025;-81
2023/08/20 05:58:39;;;;;;;3.65;1.92;;;23.10;97.10;;;;;;5093311;28;20032;-81
2023/08/20 06:01:04;;;;;;;5.82;1.77;;;23.10;96.80;;;;;;5093192;28;20040;-81
2023/08/20 06:03:30;;;;;;;6.18;2.47;;;23.20;96.90;;;;;;5093985;28;20080;-81
2023/08/20 06:05:58;;;;;;;4.97;1.95;;;23.20;96.80;;;;;;5096819;28;20448;-81
2023/08/20 06:08:23;;;;;;;2.40;1.23;;;23.20;96.70;;;;;;5096950;28;20040;-82
2023/08/20 06:10:50;;;;;;;5.20;1.48;;;23.20;96.80;;;;;;5096910;28;20078;-82
2023/08/20 06:13:16;;;;;;;4.88;2.10;;;23.20;96.80;;;;;;5096745;28;20039;-82
2023/08/20 06:15:42;;;;;;;5.65;2.45;;;23.10;96.50;;;;;;5096782;28;20032;-81
2023/08/20 06:18:07;;;;;;;4.10;1.90;;;23.10;96.30;;;;;;5095831;28;20034;-81
2023/08/20 06:20:33;;;;;;;8.80;2.58;;;23.10;96.30;;;;;;5096670;28;20043;-81
2023/08/20 06:22:59;;;;;;;5.57;2.33;;;23.10;96.30;;;;;;5078829;28;20043;-81
2023/08/20 06:25:24;;;;;;;8.52;2.72;;;23.10;96.30;;;;;;5095398;28;20036;-81
2023/08/20 06:27:50;;;;;;;7.80;3.50;;;23.10;96.30;;;;;;5096586;28;20388;-81
2023/08/20 06:30:16;;;;;;;8.40;2.65;;;23.10;96.30;;;;;;5078457;28;20033;-82
2023/08/20 06:32:43;;;;;;;7.35;3.10;;;23.10;96.10;;;;;;5096598;28;20035;-81
2023/08/20 06:35:09;;;;;;;9.25;3.10;;;23.00;95.90;;;;;;5096489;28;20028;-81
2023/08/20 06:37:35;;;;;;;4.22;2.53;;;23.00;95.90;;;;;;5094968;28;20032;-81
2023/08/20 06:40:01;;;;;;;9.05;2.90;;;23.00;96.20;;;;;;5096661;28;20101;-81
2023/08/20 06:42:26;;;;;;;5.63;2.63;;;23.00;96.40;;;;;;5096427;28;20036;-81
2023/08/20 06:44:52;;;;;;;8.13;2.75;;;23.00;96.30;;;;;;5095320;28;20116;-81
2023/08/20 06:47:18;;;;;;;5.85;2.45;;;23.00;96.20;;;;;;5096289;28;20051;-82
2023/08/20 06:49:43;;;;;;;10.50;3.22;;;23.10;96.30;;;;;;5078148;28;20032;-81
2023/08/20 06:52:09;;;;;;;9.40;3.75;;;23.00;96.10;;;;;;5096443;28;20515;-82
2023/08/20 06:54:35;;;;;;;8.18;2.45;;;23.00;96.10;;;;;;5096093;28;20028;-81
2023/08/20 06:57:01;;;;;;;7.43;3.33;;;23.00;95.80;;;;;;5096256;28;20024;-81
2023/08/20 06:59:27;;;;;;;10.27;3.25;;;23.00;95.90;;;;;;5095984;28;20028;-82
2023/08/20 07:01:53;;;;;;;6.85;3.22;;;23.00;95.50;;;;;;5095828;28;20051;-81
2023/08/20 07:04:18;;;;;;;8.20;2.63;;;23.00;95.40;;;;;;5095778;28;20048;-85
2023/08/20 07:06:44;;;;;;;9.00;3.20;;;22.90;95.60;;;;;;5095624;28;20074;-82
2023/08/20 07:09:10;;;;;;;9.10;3.13;;;22.90;95.60;;;;;;5095752;28;20037;-81
2023/08/20 07:11:35;;;;;;;10.50;3.42;;;23.00;95.20;;;;;;5094465;28;20032;-82
2023/08/20 07:14:01;;;;;;;11.32;3.42;;;23.00;95.20;;;;;;5095470;28;20062;-81
2023/08/20 07:16:27;;;;;;;5.68;2.10;;;23.00;95.10;;;;;;5094218;28;20024;-81
2023/08/20 07:18:53;;;;;;;8.60;2.20;;;23.00;95.30;;;;;;5095883;28;20024;-81
2023/08/20 07:21:18;;;;;;;6.60;2.35;;;23.10;95.50;;;;;;5095572;28;20047;-81
2023/08/20 07:23:44;;;;;;;7.43;2.35;;;23.10;95.60;;;;;;5094587;28;20032;-81
2023/08/20 07:26:13;;;;;;;8.27;2.58;;;23.20;95.60;;;;;;5094452;28;20035;-82
2023/08/20 07:29:02;;;;;;;7.47;1.85;;;23.30;95.50;;;;;;5095944;28;20039;-81
2023/08/20 07:31:30;;;;;;;9.93;2.63;;;23.30;95.10;;;;;;5095579;28;20043;-82
2023/08/20 07:33:56;;;;;;;5.20;2.10;;;23.40;95.00;;;;;;5095348;28;20024;-82
2023/08/20 07:36:23;;;;;;;6.30;1.45;;;23.40;95.00;;;;;;5093523;28;20036;-82
2023/08/20 07:38:50;;;;;;;6.15;1.52;;;23.40;95.20;;;;;;5093878;28;20093;-80
2023/08/20 07:41:17;;;;;;;5.95;1.45;;;23.50;95.10;;;;;;5095015;28;20040;-81
2023/08/20 07:43:43;;;;;;;6.32;1.52;;;23.50;95.00;;;;;;5095026;28;20032;-82
2023/08/20 07:46:09;;;;;;;7.75;1.80;;;23.70;95.20;;;;;;5093739;28;20024;-82
2023/08/20 07:48:35;;;;;;;5.78;1.48;;;23.80;94.50;;;;;;5093800;28;20036;-82
2023/08/20 07:51:02;;;;;;;6.22;1.58;;;23.90;94.40;;;;;;5094871;28;20032;-82
2023/08/20 07:53:28;;;;;;;6.47;1.15;;;23.90;94.40;;;;;;5094836;28;20063;-82
2023/08/20 07:55:55;;;;;;;7.63;2.05;;;24.00;94.20;;;;;;5094823;28;20061;-82
2023/08/20 07:58:21;;;;;;;8.52;1.42;;;24.00;94.00;;;;;;5094551;28;20024;-81
2023/08/20 08:00:47;;;;;;;5.47;1.48;;;24.00;93.90;;;;;;5094656;28;20472;-82
2023/08/20 08:03:14;;;;;;;5.30;1.10;;;24.00;93.80;;;;;;5094401;28;20097;-82
2023/08/20 08:05:50;;;;;;;4.13;1.00;;;24.10;93.70;;;;;;5094694;28;20028;-81
2023/08/20 08:08:16;;;;;;;6.07;1.25;;;24.10;93.90;;;;;;5094327;28;20032;-82
2023/08/20 08:10:44;;;;;;;4.40;1.00;;;24.20;93.00;;;;;;5094295;28;20480;-82
2023/08/20 08:13:11;;;;;;;8.75;1.20;;;24.20;92.70;;;;;;5094826;28;20032;-82
2023/08/20 08:15:37;;;;;;;6.20;0.90;;;24.20;92.70;;;;;;5094261;28;20472;-82
2023/08/20 08:18:03;;;;;;;4.50;0.80;;;24.20;92.70;;;;;;5093346;28;20032;-82
2023/08/20 08:20:29;;;;;;;7.40;1.67;;;24.30;92.50;;;;;;5094342;28;20027;-82
2023/08/20 08:22:54;;;;;;;6.68;1.45;;;24.30;92.10;;;;;;5094743;28;20448;-82
2023/08/20 08:25:20;;;;;;;4.47;1.63;;;24.30;92.20;;;;;;5093203;28;20031;-83
2023/08/20 08:27:46;;;;;;;6.28;1.27;;;24.40;92.30;;;;;;5093777;28;20028;-81
2023/08/20 08:30:12;;;;;;;6.55;1.50;;;24.50;92.60;;;;;;5076265;28;20034;-82
2023/08/20 08:32:37;;;;;;;6.15;1.27;;;24.50;93.40;;;;;;5094352;28;20020;-83
2023/08/20 08:35:03;;;;;;;8.00;1.60;;;24.60;92.80;;;;;;5092811;28;20028;-84
2023/08/20 08:37:29;;;;;;;4.50;0.82;;;24.60;92.40;;;;;;5093822;28;20028;-81
2023/08/20 08:39:54;;;;;;;4.40;1.50;;;24.60;92.10;;;;;;5093352;28;20426;-81
2023/08/20 08:42:23;;;;;;;5.80;1.05;;;24.70;91.90;;;;;;5094071;28;20047;-81
2023/08/20 08:44:49;;;;;;;5.40;1.30;;;24.70;92.00;;;;;;5093959;28;20061;-81
2023/08/20 08:47:15;;;;;;;4.55;1.00;;;24.80;91.80;;;;;;5076379;28;20043;-81
2023/08/20 08:49:41;;;;;;;3.42;0.90;;;24.80;91.70;;;;;;5093939;28;20021;-82
2023/08/20 08:52:09;;;;;;;5.03;0.80;;;25.00;91.40;;;;;;5094167;28;20024;-82
2023/08/20 08:54:35;;;;;;;4.38;0.70;;;25.00;90.60;;;;;;5093757;28;20028;-82
2023/08/20 08:57:01;;;;;;;5.88;1.00;;;25.10;90.40;;;;;;5092709;28;20035;-81
2023/08/20 08:59:27;;;;;;;2.05;0.47;;;25.20;90.40;;;;;;5093695;28;20024;-82
2023/08/20 09:01:54;;;;;;;2.40;0.52;;;25.20;90.20;;;;;;5092376;28;20040;-82
2023/08/20 09:04:19;;;;;;;3.30;0.65;;;25.30;90.20;;;;;;5093819;28;20497;-83
2023/08/20 09:06:50;;;;;;;3.22;0.50;;;25.30;90.00;;;;;;5093833;28;20028;-82
2023/08/20 09:09:20;;;;;;;3.90;0.80;;;25.40;90.00;;;;;;5100910;28;20031;-82
2023/08/20 09:11:47;;;;;;;3.20;0.68;;;25.50;89.90;;;;;;5094149;28;20036;-81
2023/08/20 09:14:29;;;;;;;2.75;0.47;;;25.50;90.00;;;;;;5092792;28;20024;-82
2023/08/20 09:16:59;;;;;;;4.35;0.60;;;25.70;90.50;;;;;;5097024;28;20024;-81
2023/08/20 09:19:39;;;;;;;4.32;0.82;;;25.80;88.80;;;;;;5097586;28;20067;-82
2023/08/20 09:22:05;;;;;;;2.13;0.82;;;25.80;87.00;;;;;;5092662;28;20073;-81
2023/08/20 09:24:42;;;;;;;4.03;0.93;;;25.80;86.30;;;;;;5093614;28;20395;-82
2023/08/20 09:27:08;;;;;;;3.55;1.30;;;25.90;86.40;;;;;;5092818;28;20031;-81
2023/08/20 09:29:54;;;;;;;2.70;0.45;;;26.00;85.00;;;;;;5093485;28;20038;-82
2023/08/20 09:32:22;;;;;;;4.43;0.40;;;26.10;84.40;;;;;;5093119;28;20056;-82
2023/08/20 09:34:50;;;;;;;4.45;0.55;;;26.10;84.00;;;;;;5093934;28;20369;-82
2023/08/20 09:37:17;;;;;;;2.47;0.60;;;26.20;84.60;;;;;;5092498;28;20486;-82
2023/08/20 09:39:43;;;;;;;3.22;0.60;;;26.30;84.80;;;;;;5097827;28;20020;-82
2023/08/20 09:42:10;;;;;;;3.72;0.80;;;26.30;84.50;;;;;;5097335;28;20514;-81
2023/08/20 09:44:39;;;;;;;3.55;0.50;;;26.40;84.20;;;;;;5097344;28;20074;-82
2023/08/20 09:47:09;;;;;;;6.15;1.50;;;26.50;83.60;;;;;;5097289;28;20021;-83
2023/08/20 09:49:40;;;;;;;6.55;0.95;;;26.50;82.90;;;;;;5096081;28;20380;-83
2023/08/20 09:52:07;;;;;;;3.13;0.50;;;26.50;83.60;;;;;;5079287;28;20051;-83
2023/08/20 09:54:59;;;;;;;2.55;0.38;;;26.50;81.70;;;;;;5097370;28;20020;-85
2023/08/20 09:57:29;;;;;;;3.15;0.38;;;26.60;80.50;;;;;;5097243;28;20085;-83
2023/08/20 09:59:56;;;;;;;2.45;0.40;;;26.70;80.70;;;;;;5097203;28;20505;-82
2023/08/20 10:02:22;;;;;;;4.43;0.70;;;26.80;80.80;;;;;;5096629;28;20043;-82
2023/08/20 10:04:49;;;;;;;3.22;0.52;;;26.80;80.30;;;;;;5097649;28;20094;-83
2023/08/20 10:07:15;;;;;;;3.95;0.40;;;26.80;79.80;;;;;;5096409;28;20384;-84
2023/08/20 10:09:45;;;;;;;2.75;0.40;;;26.80;78.70;;;;;;5079191;28;20024;-83
2023/08/20 10:12:14;;;;;;;1.55;0.30;;;26.80;78.90;;;;;;5096873;28;20032;-83
2023/08/20 10:14:41;;;;;;;3.20;0.30;;;26.80;78.90;;;;;;5096952;28;20053;-81
2023/08/20 10:17:08;;;;;;;1.25;0.38;;;27.00;79.20;;;;;;5096911;28;20039;-82
2023/08/20 10:19:37;;;;;;;2.63;0.43;;;27.10;79.70;;;;;;5096875;28;20067;-81
2023/08/20 10:22:04;;;;;;;1.88;0.22;;;27.20;78.90;;;;;;5095578;28;20116;-82
2023/08/20 10:24:52;;;;;;;1.38;0.20;;;27.30;78.20;;;;;;5096523;28;20412;-82
2023/08/20 10:27:31;;;;;;;3.20;0.20;;;27.40;76.80;;;;;;5096730;28;20475;-81
2023/08/20 10:29:59;;;;;;;1.20;0.20;;;27.50;77.20;;;;;;5096446;28;20371;-82
2023/08/20 10:32:53;;;;;;;1.15;0.20;;;27.60;77.10;;;;;;5097554;28;20060;-84
2023/08/20 10:35:22;;;;;;;2.70;0.65;;;27.70;75.80;;;;;;5096642;28;20055;-82
2023/08/20 10:38:01;;;;;;;0.90;0.10;;;27.80;76.00;;;;;;5096132;28;20032;-82
2023/08/20 10:40:53;;;;;;;3.05;0.30;;;27.80;75.00;;;;;;5096219;28;20036;-82
2023/08/20 10:43:39;;;;;;;0.73;0.10;;;27.90;74.90;;;;;;5095079;28;20114;-81
2023/08/20 10:46:25;;;;;;;0.70;0.10;;;28.00;75.30;;;;;;5096440;28;20036;-82
2023/08/20 10:48:51;;;;;;;1.60;0.30;;;28.10;74.70;;;;;;5094886;28;20038;-82
2023/08/20 10:51:29;;;;;;;2.58;0.10;;;28.10;74.80;;;;;;5094881;28;20028;-81
2023/08/20 10:54:01;;;;;;;2.35;0.20;;;28.20;73.80;;;;;;5096502;28;20047;-82
2023/08/20 10:56:54;;;;;;;1.92;0.43;;;28.30;72.00;;;;;;5096162;28;20031;-82
2023/08/20 10:59:29;;;;;;;3.08;0.30;;;28.30;70.70;;;;;;5095127;28;20036;-82
2023/08/20 11:01:57;;;;;;;3.92;0.40;;;28.20;70.90;;;;;;5095852;28;20032;-82
2023/08/20 11:04:26;;;;;;;2.17;0.30;;;28.20;71.90;;;;;;5095990;28;20133;-82
2023/08/20 11:06:56;;;;;;;1.83;0.20;;;28.20;72.10;;;;;;5095530;28;20046;-82
2023/08/20 11:09:24;;;;;;;2.63;0.30;;;28.30;70.70;;;;;;5095973;28;20028;-81
2023/08/20 11:11:50;;;;;;;2.65;0.30;;;28.20;70.30;;;;;;5095828;28;20066;-82
2023/08/20 11:14:19;;;;;;;1.30;0.20;;;28.30;70.40;;;;;;5095675;28;20028;-82
2023/08/20 11:16:45;;;;;;;2.08;0.20;;;28.30;70.10;;;;;;5095763;28;20036;-82
2023/08/20 11:19:11;;;;;;;1.15;0.20;;;28.30;69.60;;;;;;5094547;28;20174;-82
2023/08/20 11:21:41;;;;;;;4.32;0.20;;;28.40;70.10;;;;;;5095546;28;20050;-82
2023/08/20 11:24:08;;;;;;;3.10;0.32;;;28.50;69.70;;;;;;5095331;28;20020;-82
2023/08/20 11:26:35;;;;;;;3.45;0.30;;;28.60;69.50;;;;;;5095072;28;20024;-82
2023/08/20 11:29:07;;;;;;;2.55;0.20;;;28.80;68.10;;;;;;5095662;28;20050;-82
2023/08/20 11:31:33;;;;;;;2.78;0.40;;;28.80;67.70;;;;;;5095432;28;20472;-83
2023/08/20 11:33:59;;;;;;;5.10;0.30;;;28.80;66.70;;;;;;5095555;28;20032;-82
2023/08/20 11:36:25;;;;;;;2.33;0.30;;;28.80;67.60;;;;;;5093712;28;20491;-83
2023/08/20 11:38:52;;;;;;;5.13;0.50;;;28.80;68.40;;;;;;5095191;28;20020;-89
2023/08/20 11:41:21;;;;;;;2.00;0.30;;;28.90;68.30;;;;;;5094981;28;20638;-88
2023/08/20 11:43:47;;;;;;;2.47;0.25;;;28.80;66.50;;;;;;5098214;28;20023;-90
2023/08/20 11:46:20;;;;;;;1.40;0.20;;;28.90;66.40;;;;;;5095436;28;20024;-85
2023/08/20 11:49:06;;;;;;;2.15;0.17;;;28.90;66.50;;;;;;5095438;28;20065;-89
2023/08/20 11:51:39;;;;;;;3.60;0.30;;;28.90;66.60;;;;;;5095177;28;20090;-90
2023/08/20 11:54:10;;;;;;;2.30;0.50;;;29.00;66.50;;;;;;5095639;28;20472;-88
2023/08/20 11:56:42;;;;;;;3.00;0.30;;;29.10;66.40;;;;;;5095464;28;20456;-88
2023/08/20 11:59:11;;;;;;;2.95;0.30;;;29.10;64.30;;;;;;5093945;28;20032;-90
2023/08/20 12:01:37;;;;;;;1.70;0.30;;;29.10;64.40;;;;;;5092901;28;20419;-89
2023/08/20 12:04:10;;;;;;;2.85;0.30;;;29.10;66.00;;;;;;5093584;28;20048;-89
2023/08/20 12:06:37;;;;;;;3.50;0.30;;;29.20;66.00;;;;;;5094845;28;20035;-89
2023/08/20 12:09:20;;;;;;;4.13;0.50;;;29.30;66.50;;;;;;5094938;28;20020;-88
2023/08/20 12:11:54;;;;;;;3.22;0.30;;;29.30;65.70;;;;;;5094956;28;20040;-89
2023/08/20 12:14:20;;;;;;;2.42;0.20;;;29.30;64.60;;;;;;5094095;28;20107;-88
2023/08/20 12:16:46;;;;;;;2.38;0.32;;;29.30;64.20;;;;;;5095189;28;20127;-89
2023/08/20 12:19:13;;;;;;;3.80;0.57;;;29.40;64.10;;;;;;5095119;28;20059;-90
2023/08/20 12:21:40;;;;;;;2.55;0.20;;;29.40;64.10;;;;;;5094984;28;20040;-90
2023/08/20 12:24:07;;;;;;;1.80;0.25;;;29.50;64.10;;;;;;5094808;28;20085;-90
2023/08/20 12:26:32;;;;;;;2.05;0.30;;;29.50;63.30;;;;;;5093704;28;20078;-90
2023/08/20 12:28:58;;;;;;;3.47;0.30;;;29.50;63.80;;;;;;5093797;28;20423;-90
2023/08/20 12:31:23;;;;;;;1.50;0.20;;;29.50;63.70;;;;;;5095927;28;20468;-90
2023/08/20 12:33:49;;;;;;;3.60;0.20;;;29.60;63.90;;;;;;5095051;28;20032;-90
2023/08/20 12:36:15;;;;;;;2.08;0.50;;;29.70;63.80;;;;;;5094388;28;20039;-89
2023/08/20 12:38:41;;;;;;;2.70;0.50;;;29.70;63.70;;;;;;5094178;28;20051;-89
2023/08/20 12:41:07;;;;;;;2.28;0.40;;;29.70;63.10;;;;;;5094461;28;20503;-89
2023/08/20 12:43:33;;;;;;;2.85;0.30;;;29.70;63.00;;;;;;5094926;28;20024;-89
2023/08/20 12:45:58;;;;;;;3.05;0.30;;;29.80;62.50;;;;;;5094706;28;20059;-90
2023/08/20 12:48:24;;;;;;;1.73;0.20;;;29.80;62.00;;;;;;5094553;28;20051;-90
2023/08/20 12:50:49;;;;;;;2.70;0.30;;;29.80;62.50;;;;;;5094712;28;20332;-91